createdAt,value
2018-12-15T00:01:22.171Z,0.00
2018-12-15T00:03:50.313Z,-0.10
2018-12-15T00:06:18.507Z,-0.10
2018-12-15T00:08:46.661Z,-0.10
2018-12-15T00:11:14.835Z,-0.10
2018-12-15T00:13:43.013Z,-0.10
2018-12-15T00:16:11.224Z,-0.10
2018-12-15T00:18:39.449Z,-0.10
2018-12-15T00:21:07.580Z,-0.10
2018-12-15T00:23:35.802Z,-0.10
2018-12-15T00:26:03.999Z,-0.10
2018-12-15T00:28:32.123Z,-0.10
2018-12-15T00:31:00.282Z,-0.10
2018-12-15T00:33:28.559Z,-0.10
2018-12-15T00:35:56.770Z,-0.20
2018-12-15T00:38:24.902Z,-0.20
2018-12-15T00:40:54.058Z,-0.20
2018-12-15T00:43:22.216Z,-0.20
2018-12-15T00:45:50.350Z,-0.20
2018-12-15T00:48:18.605Z,-0.10
2018-12-15T00:50:46.744Z,-0.10
2018-12-15T00:53:14.970Z,-0.10
2018-12-15T00:55:43.109Z,-0.10
2018-12-15T00:58:11.231Z,-0.10
2018-12-15T01:00:39.490Z,-0.10
2018-12-15T01:03:07.895Z,-0.10
2018-12-15T01:05:36.061Z,-0.10
2018-12-15T01:08:04.290Z,0.00
2018-12-15T01:10:32.463Z,-0.10
2018-12-15T01:13:00.614Z,-0.10
2018-12-15T01:15:34.115Z,0.00
2018-12-15T01:18:02.310Z,-0.10
2018-12-15T01:20:30.421Z,-0.10
2018-12-15T01:22:58.485Z,-0.10
2018-12-15T01:25:26.615Z,-0.10
2018-12-15T01:27:54.843Z,-0.10
2018-12-15T01:30:23.129Z,-0.10
2018-12-15T01:32:51.198Z,-0.10
2018-12-15T01:35:19.461Z,-0.10
2018-12-15T01:37:47.645Z,-0.10
2018-12-15T01:40:15.870Z,-0.10
2018-12-15T01:42:44.089Z,-0.10
2018-12-15T01:45:12.209Z,-0.10
2018-12-15T01:47:40.341Z,-0.10
2018-12-15T01:50:08.606Z,-0.20
2018-12-15T01:52:36.769Z,-0.10
2018-12-15T01:55:04.919Z,-0.10
2018-12-15T01:57:33.037Z,-0.10
2018-12-15T02:00:01.255Z,-0.10
2018-12-15T02:02:29.436Z,-0.10
2018-12-15T02:04:57.645Z,-0.10
2018-12-15T02:07:25.802Z,-0.10
2018-12-15T02:09:54.978Z,-0.10
2018-12-15T02:12:23.156Z,-0.10
2018-12-15T02:14:51.337Z,-0.20
2018-12-15T02:17:19.461Z,-0.20
2018-12-15T02:19:47.611Z,-0.20
2018-12-15T02:22:15.763Z,-0.20
2018-12-15T02:24:44.026Z,-0.20
2018-12-15T02:27:12.230Z,-0.20
2018-12-15T02:29:40.388Z,-0.20
2018-12-15T02:32:08.556Z,-0.10
2018-12-15T02:34:36.795Z,-0.20
2018-12-15T02:37:05.048Z,-0.20
2018-12-15T02:39:33.217Z,-0.10
2018-12-15T02:42:01.371Z,-0.20
2018-12-15T02:44:29.538Z,-0.20
2018-12-15T02:46:57.762Z,-0.10
2018-12-15T02:49:27.005Z,-0.10
2018-12-15T02:51:55.266Z,-0.10
2018-12-15T02:54:23.363Z,0.00
2018-12-15T02:56:51.468Z,-0.10
2018-12-15T02:59:19.652Z,0.00
2018-12-15T03:01:47.754Z,0.00
2018-12-15T03:04:16.352Z,0.00
2018-12-15T03:06:44.527Z,0.00
2018-12-15T03:09:12.808Z,0.00
2018-12-15T03:11:40.962Z,0.00
2018-12-15T03:14:09.142Z,0.00
2018-12-15T03:16:37.335Z,0.10
2018-12-15T03:19:11.144Z,0.10
2018-12-15T03:21:39.317Z,0.10
2018-12-15T03:24:07.520Z,0.10
2018-12-15T03:26:35.694Z,0.20
2018-12-15T03:29:03.845Z,0.20
2018-12-15T03:31:34.449Z,0.20
2018-12-15T03:34:02.734Z,0.20
2018-12-15T03:36:30.863Z,0.20
2018-12-15T03:38:59.006Z,0.20
2018-12-15T03:41:29.196Z,0.20
2018-12-15T03:43:57.378Z,0.20
2018-12-15T03:46:25.533Z,0.20
2018-12-15T03:48:53.745Z,0.20
2018-12-15T03:51:21.849Z,0.30
2018-12-15T03:53:50.041Z,0.20
2018-12-15T03:56:19.154Z,0.30
2018-12-15T03:58:47.338Z,0.30
2018-12-15T04:01:15.536Z,0.30
2018-12-15T04:03:43.702Z,0.30
2018-12-15T04:06:11.909Z,0.40
2018-12-15T04:08:40.095Z,0.40
2018-12-15T04:11:08.214Z,0.30
2018-12-15T04:13:36.481Z,0.30
2018-12-15T04:16:04.769Z,0.30
2018-12-15T04:18:32.957Z,0.30
2018-12-15T04:21:01.207Z,0.30
2018-12-15T04:23:29.291Z,0.20
2018-12-15T04:25:57.492Z,0.10
2018-12-15T04:28:25.612Z,0.10
2018-12-15T04:30:54.879Z,0.10
2018-12-15T04:33:23.043Z,0.20
2018-12-15T04:35:51.182Z,0.10
2018-12-15T04:38:19.386Z,0.10
2018-12-15T04:40:47.557Z,0.10
2018-12-15T04:43:15.852Z,0.20
2018-12-15T04:45:43.971Z,0.30
2018-12-15T04:48:12.169Z,0.40
2018-12-15T04:50:40.340Z,0.40
2018-12-15T04:53:08.528Z,0.30
2018-12-15T04:55:36.699Z,0.20
2018-12-15T04:58:04.780Z,0.10
2018-12-15T05:00:32.960Z,0.10
2018-12-15T05:03:01.138Z,0.10
2018-12-15T05:05:29.268Z,0.10
2018-12-15T05:07:57.402Z,0.10
2018-12-15T05:10:25.540Z,0.10
2018-12-15T05:12:53.718Z,0.00
2018-12-15T05:15:21.853Z,0.00
2018-12-15T05:17:49.906Z,-0.10
2018-12-15T05:20:18.045Z,-0.10
2018-12-15T05:22:46.221Z,0.00
2018-12-15T05:25:14.570Z,0.00
2018-12-15T05:27:42.731Z,-0.10
2018-12-15T05:30:11.003Z,0.00
2018-12-15T05:32:39.243Z,0.00
2018-12-15T05:35:07.391Z,0.00
2018-12-15T05:37:35.633Z,-0.10
2018-12-15T05:40:03.949Z,0.00
2018-12-15T05:42:32.087Z,-0.10
2018-12-15T05:45:00.249Z,0.00
2018-12-15T05:47:28.406Z,0.00
2018-12-15T05:49:56.468Z,0.00
2018-12-15T05:52:24.611Z,-0.10
2018-12-15T05:54:52.775Z,-0.10
2018-12-15T05:57:20.965Z,-0.10
2018-12-15T05:59:49.248Z,-0.10
2018-12-15T06:02:18.005Z,0.00
2018-12-15T06:04:46.077Z,-0.10
2018-12-15T06:07:14.374Z,0.00
2018-12-15T06:09:42.539Z,0.00
2018-12-15T06:12:10.779Z,-0.10
2018-12-15T06:14:38.889Z,-0.10
2018-12-15T06:17:07.075Z,-0.10
2018-12-15T06:19:35.188Z,-0.10
2018-12-15T06:22:03.334Z,-0.20
2018-12-15T06:24:31.471Z,-0.20
2018-12-15T06:26:59.669Z,-0.20
2018-12-15T06:29:27.742Z,-0.20
2018-12-15T06:31:55.936Z,-0.20
2018-12-15T06:34:24.092Z,-0.20
2018-12-15T06:36:52.306Z,-0.10
2018-12-15T06:39:20.448Z,-0.10
2018-12-15T06:41:48.604Z,-0.10
2018-12-15T06:44:16.795Z,-0.10
2018-12-15T06:46:44.975Z,-0.10
2018-12-15T06:49:13.208Z,-0.10
2018-12-15T06:51:41.370Z,-0.10
2018-12-15T06:54:09.545Z,-0.10
2018-12-15T06:56:37.679Z,-0.10
2018-12-15T06:59:05.907Z,0.00
2018-12-15T07:01:34.093Z,-0.10
2018-12-15T07:04:02.219Z,0.00
2018-12-15T07:06:30.337Z,0.00
2018-12-15T07:08:58.634Z,0.00
2018-12-15T07:11:26.892Z,0.00
2018-12-15T07:13:56.003Z,0.00
2018-12-15T07:16:24.165Z,0.00
2018-12-15T07:18:52.327Z,0.00
2018-12-15T07:21:20.561Z,0.00
2018-12-15T07:23:48.686Z,0.10
2018-12-15T07:26:16.852Z,0.10
2018-12-15T07:28:45.101Z,0.10
2018-12-15T07:31:13.323Z,0.00
2018-12-15T07:33:41.498Z,0.00
2018-12-15T07:36:09.678Z,0.10
2018-12-15T07:38:37.803Z,0.00
2018-12-15T07:41:06.965Z,0.00
2018-12-15T07:43:35.134Z,0.00
2018-12-15T07:46:03.292Z,0.00
2018-12-15T07:48:31.576Z,0.00
2018-12-15T07:50:59.730Z,0.10
2018-12-15T07:53:27.943Z,0.10
2018-12-15T07:55:56.104Z,0.10
2018-12-15T07:58:24.273Z,0.20
2018-12-15T08:00:52.531Z,0.20
2018-12-15T08:03:20.739Z,0.20
2018-12-15T08:05:48.919Z,0.20
2018-12-15T08:08:17.067Z,0.20
2018-12-15T08:10:50.671Z,0.40
2018-12-15T08:13:28.138Z,0.50
2018-12-15T08:15:57.745Z,0.70
2018-12-15T08:18:25.982Z,0.60
2018-12-15T08:20:54.087Z,0.50
2018-12-15T08:23:22.192Z,0.50
2018-12-15T08:25:50.430Z,0.50
2018-12-15T08:28:18.554Z,0.40
2018-12-15T08:30:46.750Z,0.40
2018-12-15T08:33:14.811Z,0.40
2018-12-15T08:35:42.974Z,0.40
2018-12-15T08:38:11.184Z,0.60
2018-12-15T08:40:39.351Z,0.50
2018-12-15T08:43:07.497Z,0.40
2018-12-15T08:45:35.658Z,0.50
2018-12-15T08:48:03.845Z,0.60
2018-12-15T08:50:32.044Z,0.60
2018-12-15T08:53:00.197Z,0.50
2018-12-15T08:55:28.380Z,0.50
2018-12-15T08:57:56.547Z,0.50
2018-12-15T09:00:24.747Z,0.50
2018-12-15T09:02:52.887Z,0.50
2018-12-15T09:05:21.107Z,0.60
2018-12-15T09:07:49.254Z,0.70
2018-12-15T09:10:17.381Z,0.60
2018-12-15T09:12:45.475Z,0.60
2018-12-15T09:15:13.667Z,0.70
2018-12-15T09:17:41.874Z,0.70
2018-12-15T09:20:10.015Z,0.60
2018-12-15T09:22:38.136Z,0.70
2018-12-15T09:25:06.266Z,0.80
2018-12-15T09:27:34.451Z,0.70
2018-12-15T09:30:02.577Z,0.50
2018-12-15T09:32:30.799Z,0.60
2018-12-15T09:34:58.951Z,0.40
2018-12-15T09:37:27.161Z,0.50
2018-12-15T09:39:55.313Z,0.60
2018-12-15T09:42:23.562Z,0.60
2018-12-15T09:44:51.753Z,0.70
2018-12-15T09:47:19.963Z,0.70
2018-12-15T09:49:48.102Z,0.80
2018-12-15T09:52:16.274Z,0.80
2018-12-15T09:54:44.536Z,0.80
2018-12-15T09:57:12.591Z,0.80
2018-12-15T09:59:40.675Z,0.90
2018-12-15T10:02:08.844Z,0.90
2018-12-15T10:04:36.935Z,0.90
2018-12-15T10:07:05.157Z,0.80
2018-12-15T10:09:33.446Z,0.80
2018-12-15T10:12:01.642Z,0.80
2018-12-15T10:14:29.814Z,0.90
2018-12-15T10:16:57.910Z,0.90
2018-12-15T10:19:26.145Z,0.90
2018-12-15T10:21:54.233Z,0.80
2018-12-15T10:24:22.349Z,0.80
2018-12-15T10:26:50.595Z,0.80
2018-12-15T10:29:24.324Z,0.80
2018-12-15T10:31:57.864Z,0.80
2018-12-15T10:34:26.001Z,0.80
2018-12-15T10:36:54.162Z,0.80
2018-12-15T10:39:22.354Z,0.90
2018-12-15T10:41:50.517Z,0.90
2018-12-15T10:44:18.750Z,0.80
2018-12-15T10:46:46.866Z,0.80
2018-12-15T10:49:15.020Z,0.70
2018-12-15T10:51:43.223Z,0.80
2018-12-15T10:54:11.437Z,0.80
2018-12-15T10:56:39.583Z,0.80
2018-12-15T10:59:07.629Z,0.70
2018-12-15T11:01:36.741Z,0.80
2018-12-15T11:04:04.947Z,0.90
2018-12-15T11:06:33.098Z,0.90
2018-12-15T11:09:01.247Z,0.90
2018-12-15T11:11:29.495Z,0.90
2018-12-15T11:13:57.666Z,1.00
2018-12-15T11:16:25.795Z,1.00
2018-12-15T11:18:53.999Z,1.00
2018-12-15T11:21:22.230Z,1.00
2018-12-15T11:23:50.439Z,1.00
2018-12-15T11:26:18.558Z,1.00
2018-12-15T11:28:46.660Z,1.10
2018-12-15T11:31:14.878Z,1.10
2018-12-15T11:33:43.013Z,1.00
2018-12-15T11:36:11.281Z,1.00
2018-12-15T11:38:39.442Z,1.00
2018-12-15T11:41:07.676Z,1.10
2018-12-15T11:43:35.786Z,1.10
2018-12-15T11:46:03.979Z,1.20
2018-12-15T11:48:32.134Z,1.20
2018-12-15T11:51:00.366Z,1.20
2018-12-15T11:53:28.489Z,1.20
2018-12-15T11:55:56.668Z,1.20
2018-12-15T11:58:24.880Z,1.20
2018-12-15T12:00:53.019Z,1.20
2018-12-15T12:03:21.209Z,1.20
2018-12-15T12:05:49.384Z,1.10
2018-12-15T12:08:17.651Z,1.10
2018-12-15T12:10:45.835Z,1.10
2018-12-15T12:13:13.951Z,1.20
2018-12-15T12:15:42.103Z,1.10
2018-12-15T12:18:10.312Z,1.00
2018-12-15T12:20:38.451Z,1.10
2018-12-15T12:23:06.635Z,1.10
2018-12-15T12:25:34.789Z,1.10
2018-12-15T12:28:02.973Z,1.20
2018-12-15T12:30:31.137Z,1.30
2018-12-15T12:32:59.470Z,1.30
2018-12-15T12:35:27.775Z,1.30
2018-12-15T12:37:55.942Z,1.30
2018-12-15T12:40:24.211Z,1.30
2018-12-15T12:42:52.493Z,1.20
2018-12-15T12:45:20.566Z,1.20
2018-12-15T12:47:48.738Z,1.20
2018-12-15T12:50:16.901Z,1.30
2018-12-15T12:52:45.295Z,1.30
2018-12-15T12:55:13.312Z,1.20
2018-12-15T12:57:42.504Z,1.30
2018-12-15T13:00:10.595Z,1.30
2018-12-15T13:02:38.715Z,1.30
2018-12-15T13:05:06.885Z,1.30
2018-12-15T13:07:35.069Z,1.30
2018-12-15T13:10:03.550Z,1.30
2018-12-15T13:12:31.742Z,1.30
2018-12-15T13:14:59.859Z,1.30
2018-12-15T13:17:27.975Z,1.30
2018-12-15T13:19:56.151Z,1.30
2018-12-15T13:22:24.342Z,1.30
2018-12-15T13:24:52.481Z,1.30
2018-12-15T13:27:20.668Z,1.30
2018-12-15T13:29:48.868Z,1.30
2018-12-15T13:32:17.013Z,1.20
2018-12-15T13:34:45.202Z,1.10
2018-12-15T13:37:13.505Z,1.10
2018-12-15T13:39:41.682Z,1.10
2018-12-15T13:42:09.843Z,1.10
2018-12-15T13:44:38.005Z,1.10
2018-12-15T13:47:06.183Z,1.10
2018-12-15T13:49:34.389Z,1.10
2018-12-15T13:52:02.537Z,1.10
2018-12-15T13:54:30.719Z,1.10
2018-12-15T13:56:58.887Z,1.10
2018-12-15T13:59:27.063Z,1.00
2018-12-15T14:01:55.229Z,1.00
2018-12-15T14:04:23.356Z,1.00
2018-12-15T14:06:51.494Z,0.90
2018-12-15T14:09:19.629Z,1.00
2018-12-15T14:11:47.782Z,1.10
2018-12-15T14:14:15.919Z,1.10
2018-12-15T14:16:44.081Z,1.10
2018-12-15T14:19:12.203Z,1.10
2018-12-15T14:21:40.295Z,1.10
2018-12-15T14:24:08.441Z,1.10
2018-12-15T14:26:36.581Z,1.10
2018-12-15T14:29:04.757Z,1.10
2018-12-15T14:31:32.913Z,1.20
2018-12-15T14:34:02.194Z,1.10
2018-12-15T14:36:30.406Z,1.10
2018-12-15T14:38:58.755Z,1.00
2018-12-15T14:41:26.955Z,1.00
2018-12-15T14:43:55.201Z,0.90
2018-12-15T14:46:23.414Z,0.80
2018-12-15T14:48:51.521Z,0.70
2018-12-15T14:51:19.625Z,0.70
2018-12-15T14:53:48.725Z,0.70
2018-12-15T14:56:16.893Z,0.70
2018-12-15T14:58:45.082Z,0.70
2018-12-15T15:01:13.211Z,0.60
2018-12-15T15:03:41.294Z,0.60
2018-12-15T15:06:09.383Z,0.70
2018-12-15T15:08:37.594Z,0.70
2018-12-15T15:11:05.799Z,0.70
2018-12-15T15:13:34.711Z,0.70
2018-12-15T15:16:03.243Z,0.70
2018-12-15T15:18:31.417Z,0.70
2018-12-15T15:20:59.603Z,0.80
2018-12-15T15:23:27.749Z,0.70
2018-12-15T15:25:55.937Z,0.80
2018-12-15T15:28:24.095Z,0.80
2018-12-15T15:30:52.274Z,0.80
2018-12-15T15:33:20.460Z,0.80
2018-12-15T15:35:48.634Z,0.70
2018-12-15T15:38:17.837Z,0.80
2018-12-15T15:40:46.036Z,0.90
2018-12-15T15:43:14.208Z,0.90
2018-12-15T15:45:42.359Z,0.80
2018-12-15T15:48:10.610Z,0.80
2018-12-15T15:50:38.806Z,0.80
2018-12-15T15:53:06.962Z,0.80
2018-12-15T15:55:35.145Z,0.80
2018-12-15T15:58:03.342Z,0.80
2018-12-15T16:00:31.442Z,0.70
2018-12-15T16:02:59.571Z,0.70
2018-12-15T16:05:27.734Z,0.70
2018-12-15T16:07:55.952Z,0.70
2018-12-15T16:10:24.193Z,0.70
2018-12-15T16:12:52.385Z,0.70
2018-12-15T16:15:20.540Z,0.70
2018-12-15T16:17:48.731Z,0.80
2018-12-15T16:20:16.864Z,0.70
2018-12-15T16:22:45.041Z,0.70
2018-12-15T16:25:13.107Z,0.80
2018-12-15T16:27:41.222Z,0.70
2018-12-15T16:30:11.545Z,0.70
2018-12-15T16:32:39.725Z,0.80
2018-12-15T16:35:07.966Z,0.80
2018-12-15T16:37:36.099Z,0.80
2018-12-15T16:40:06.002Z,0.70
2018-12-15T16:42:34.099Z,0.70
2018-12-15T16:45:02.234Z,0.80
2018-12-15T16:47:30.418Z,0.80
2018-12-15T16:49:58.596Z,0.70
2018-12-15T16:52:27.287Z,0.80
2018-12-15T16:54:56.122Z,0.80
2018-12-15T16:57:24.267Z,0.70
2018-12-15T16:59:52.419Z,0.80
2018-12-15T17:02:20.599Z,0.80
2018-12-15T17:04:49.758Z,0.80
2018-12-15T17:07:17.966Z,0.80
2018-12-15T17:09:46.128Z,0.80
2018-12-15T17:12:14.340Z,0.80
2018-12-15T17:14:42.502Z,0.80
2018-12-15T17:17:10.658Z,0.80
2018-12-15T17:19:38.830Z,0.70
2018-12-15T17:22:07.016Z,0.70
2018-12-15T17:24:35.113Z,0.80
2018-12-15T17:27:03.253Z,0.80
2018-12-15T17:29:31.444Z,0.80
2018-12-15T17:31:59.625Z,0.80
2018-12-15T17:34:27.729Z,0.80
2018-12-15T17:36:55.830Z,0.70
2018-12-15T17:39:24.120Z,0.70
2018-12-15T17:41:52.223Z,0.70
2018-12-15T17:44:20.356Z,0.70
2018-12-15T17:46:48.575Z,0.70
2018-12-15T17:49:16.723Z,0.70
2018-12-15T17:51:44.941Z,0.70
2018-12-15T17:54:13.077Z,0.70
2018-12-15T17:56:41.242Z,0.70
2018-12-15T17:59:09.357Z,0.70
2018-12-15T18:01:37.509Z,0.70
2018-12-15T18:04:05.698Z,0.70
2018-12-15T18:06:33.793Z,0.60
2018-12-15T18:10:31.193Z,0.60
2018-12-15T18:12:59.348Z,0.60
2018-12-15T18:15:27.555Z,0.60
2018-12-15T18:17:55.742Z,0.70
2018-12-15T18:20:23.865Z,0.70
2018-12-15T18:22:51.986Z,0.70
2018-12-15T18:25:20.191Z,0.70
2018-12-15T18:27:48.498Z,0.60
2018-12-15T18:30:16.840Z,0.60
2018-12-15T18:32:44.974Z,0.50
2018-12-15T18:35:13.168Z,0.60
2018-12-15T18:37:41.308Z,0.50
2018-12-15T18:40:09.796Z,0.50
2018-12-15T18:42:37.972Z,0.50
2018-12-15T18:45:06.768Z,0.50
2018-12-15T18:47:34.949Z,0.50
2018-12-15T18:50:03.172Z,0.40
2018-12-15T18:52:31.287Z,0.50
2018-12-15T18:54:59.521Z,0.50
2018-12-15T18:57:27.630Z,0.40
2018-12-15T18:59:55.830Z,0.40
2018-12-15T19:02:23.995Z,0.40
2018-12-15T19:04:52.219Z,0.40
2018-12-15T19:07:20.519Z,0.30
2018-12-15T19:09:48.733Z,0.30
2018-12-15T19:12:16.896Z,0.30
2018-12-15T19:14:45.087Z,0.40
2018-12-15T19:17:13.281Z,0.40
2018-12-15T19:19:41.416Z,0.40
2018-12-15T19:22:10.614Z,0.40
2018-12-15T19:24:38.791Z,0.40
2018-12-15T19:27:06.968Z,0.40
2018-12-15T19:29:35.146Z,0.40
2018-12-15T19:32:03.359Z,0.40
2018-12-15T19:34:31.513Z,0.40
2018-12-15T19:36:59.669Z,0.40
2018-12-15T19:39:28.878Z,0.40
2018-12-15T19:41:56.968Z,0.40
2018-12-15T19:44:25.149Z,0.40
2018-12-15T19:46:53.278Z,0.40
2018-12-15T19:49:21.460Z,0.40
2018-12-15T19:51:49.622Z,0.30
2018-12-15T19:54:17.813Z,0.30
2018-12-15T19:56:46.011Z,0.30
2018-12-15T19:59:15.241Z,0.30
2018-12-15T20:01:43.640Z,0.30
2018-12-15T20:04:11.801Z,0.30
2018-12-15T20:06:39.980Z,0.30
2018-12-15T20:09:09.534Z,0.30
2018-12-15T20:11:37.887Z,0.40
2018-12-15T20:14:06.070Z,0.40
2018-12-15T20:16:34.255Z,0.30
2018-12-15T20:19:02.397Z,0.30
2018-12-15T20:21:35.963Z,0.30
2018-12-15T20:24:00.713Z,0.40
2018-12-15T20:26:28.865Z,0.40
2018-12-15T20:28:57.150Z,0.30
2018-12-15T20:31:25.324Z,0.30
2018-12-15T20:33:53.499Z,0.30
2018-12-15T20:36:21.666Z,0.30
2018-12-15T20:38:49.906Z,0.30
2018-12-15T20:41:19.280Z,0.30
2018-12-15T20:43:47.564Z,0.20
2018-12-15T20:46:15.717Z,0.30
2018-12-15T20:48:43.980Z,0.30
2018-12-15T20:51:13.171Z,0.30
2018-12-15T20:53:41.395Z,0.30
2018-12-15T20:56:09.577Z,0.20
2018-12-15T20:58:37.727Z,0.30
2018-12-15T21:01:06.001Z,0.20
2018-12-15T21:03:34.159Z,0.20
2018-12-15T21:06:02.403Z,0.30
2018-12-15T21:08:30.527Z,0.30
2018-12-15T21:10:58.675Z,0.30
2018-12-15T21:13:26.889Z,0.30
2018-12-15T21:15:57.507Z,0.30
2018-12-15T21:18:25.983Z,0.30
2018-12-15T21:20:54.149Z,0.30
2018-12-15T21:23:22.297Z,0.30
2018-12-15T21:25:50.410Z,0.30
2018-12-15T21:28:18.593Z,0.30
2018-12-15T21:30:46.905Z,0.30
2018-12-15T21:33:14.999Z,0.40
2018-12-15T21:35:43.264Z,0.40
2018-12-15T21:38:11.430Z,0.40
2018-12-15T21:40:39.591Z,0.40
2018-12-15T21:43:07.714Z,0.40
2018-12-15T21:45:36.027Z,0.40
2018-12-15T21:48:04.272Z,0.40
2018-12-15T21:50:32.464Z,0.40
2018-12-15T21:53:00.668Z,0.40
2018-12-15T21:57:48.415Z,0.40
2018-12-15T22:00:16.574Z,0.40
2018-12-15T22:02:44.727Z,0.40
2018-12-15T22:05:12.996Z,0.40
2018-12-15T22:07:41.194Z,0.40
2018-12-15T22:10:09.321Z,0.50
2018-12-15T22:12:38.443Z,0.50
2018-12-15T22:15:07.005Z,0.50
2018-12-15T22:17:35.123Z,0.50
2018-12-15T22:20:03.907Z,0.50
2018-12-15T22:22:32.083Z,0.40
2018-12-15T22:25:00.274Z,0.50
2018-12-15T22:27:28.362Z,0.50
2018-12-15T22:29:56.502Z,0.50
2018-12-15T22:32:24.664Z,0.50
2018-12-15T22:34:52.870Z,0.50
2018-12-15T22:37:21.045Z,0.50
2018-12-15T22:39:49.216Z,0.50
2018-12-15T22:42:17.335Z,0.50
2018-12-15T22:44:45.443Z,0.50
2018-12-15T22:47:13.634Z,0.50
2018-12-15T22:49:41.778Z,0.50
2018-12-15T22:52:10.112Z,0.50
2018-12-15T22:54:39.368Z,0.50
2018-12-15T22:57:07.590Z,0.50
2018-12-15T22:59:35.704Z,0.50
2018-12-15T23:02:03.880Z,0.50
2018-12-15T23:04:32.167Z,0.50
2018-12-15T23:07:00.381Z,0.60
2018-12-15T23:09:28.486Z,0.60
2018-12-15T23:11:56.693Z,0.60
2018-12-15T23:14:24.848Z,0.60
2018-12-15T23:16:53.038Z,0.60
2018-12-15T23:19:21.139Z,0.60
2018-12-15T23:21:49.271Z,0.60
2018-12-15T23:24:17.753Z,0.60
2018-12-15T23:26:45.917Z,0.60
2018-12-15T23:29:14.091Z,0.60
2018-12-15T23:31:42.290Z,0.50
2018-12-15T23:34:10.420Z,0.50
2018-12-15T23:36:38.604Z,0.50
2018-12-15T23:39:07.790Z,0.50
2018-12-15T23:41:35.966Z,0.50
2018-12-15T23:44:04.133Z,0.50
2018-12-15T23:46:32.273Z,0.50
2018-12-15T23:49:00.410Z,0.50
2018-12-15T23:51:28.582Z,0.50
2018-12-15T23:53:56.749Z,0.50
2018-12-15T23:56:24.859Z,0.50
2018-12-15T23:58:53.050Z,0.50
